Terminal Aerodrome Forecast
Issued by NWS

Home | Current Version | Previous Version | Graphics & Text | Print | Product List | Glossary On
Versions: 1 2 3 4 5 6 7 8 9 10 11 12 13 14 15 16 17 18 19
000
FTUS43 KMPX 050520
TAFRWF
TAF
KRWF 050520Z 0506/0606 09007KT P6SM OVC250
     FM051700 12013G21KT P6SM VCSH BKN050 OVC120
     FM060100 13010KT P6SM BKN040 BKN100=

USA.gov is the U.S. government's official web portal to all federal, state and local government web resources and services.